Terminal Aerodrome Forecast
Issued by NWS

Home | Current Version | Previous Version | Text Only | Print | Product List | Glossary Off
Versions: 1 2 3 4 5 6 7 8 9 10 11 12 13 14 15 16 17 18 19

000
FTUS43 KMPX 251139
TAFRNH
TAF
KRNH 251139Z 2512/2612 11005KT 3SM BR OVC005
     FM251400 18005KT 4SM -RA BR OVC007
     FM251800 22009KT P6SM OVC012
     FM252100 24009KT P6SM OVC030
     FM260000 25009KT P6SM SCT015 OVC040
     FM260300 23006KT 5SM BR OVC015
     FM260600 VRB04KT 2SM BR OVC005=

USA.gov is the U.S. government's official web portal to all federal, state and local government web resources and services.